Time;durP1;ratioP1;P1;durP2;ratioP2;P2;SDS_P1;SDS_P2;PMS_P1;PMS_P2;Temp;Humidity;BMP_temperature;BMP_pressure;BME280_temperature;BME280_humidity;BME280_pressure;Samples;Min_cycle;Max_cycle;Signal;HPM_P1;HPM_P2
2022/12/24 00:01:19;;;;;;;32.60;16.65;;;6.50;99.90;;;;;;4990829;28;20048;-78
2022/12/24 00:03:44;;;;;;;32.38;16.55;;;6.50;99.90;;;;;;4990901;28;20046;-78
2022/12/24 00:06:17;;;;;;;35.50;17.10;;;6.50;99.90;;;;;;4990690;28;20113;-75
2022/12/24 00:08:43;;;;;;;37.58;18.20;;;6.50;99.90;;;;;;5023310;28;20054;-76
2022/12/24 00:11:08;;;;;;;36.95;16.90;;;6.50;99.90;;;;;;4990710;28;20065;-91
2022/12/24 00:13:34;;;;;;;34.55;17.23;;;7.00;99.90;;;;;;5022937;28;20698;-93
2022/12/24 00:16:00;;;;;;;33.95;16.92;;;6.50;99.90;;;;;;4990872;28;20061;-76
2022/12/24 00:18:26;;;;;;;34.60;17.85;;;6.50;99.90;;;;;;4990231;28;20039;-78
2022/12/24 00:20:52;;;;;;;35.55;17.52;;;6.50;99.90;;;;;;5021596;28;20057;-78
2022/12/24 00:23:20;;;;;;;34.17;16.45;;;6.50;99.90;;;;;;4989453;28;20141;-85
2022/12/24 00:25:46;;;;;;;32.88;16.08;;;6.50;99.90;;;;;;4990270;28;20145;-86
2022/12/24 00:28:13;;;;;;;33.80;16.98;;;6.50;99.90;;;;;;4990562;28;20046;-85
2022/12/24 00:30:40;;;;;;;36.72;16.83;;;6.50;99.90;;;;;;4989353;28;20072;-76
2022/12/24 00:33:07;;;;;;;35.55;18.00;;;6.60;99.90;;;;;;4989365;28;20054;-81
2022/12/24 00:35:37;;;;;;;32.10;15.88;;;6.50;99.90;;;;;;4990741;28;20038;-80
2022/12/24 00:38:03;;;;;;;33.80;15.75;;;6.50;99.90;;;;;;5021625;28;20054;-81
2022/12/24 00:40:30;;;;;;;30.60;16.10;;;6.50;99.90;;;;;;4989817;28;20038;-78
2022/12/24 00:42:56;;;;;;;29.00;16.10;;;6.50;99.90;;;;;;4989099;28;20058;-78
2022/12/24 00:45:22;;;;;;;35.80;16.77;;;6.50;99.90;;;;;;4990393;28;20061;-85
2022/12/24 00:47:48;;;;;;;30.40;16.48;;;6.70;99.90;;;;;;4988867;28;20046;-81
2022/12/24 00:50:13;;;;;;;30.00;14.82;;;6.50;99.90;;;;;;4989318;28;20052;-79
2022/12/24 00:52:39;;;;;;;29.02;14.95;;;6.50;99.90;;;;;;4989172;28;20047;-77
2022/12/24 00:55:05;;;;;;;29.02;15.07;;;6.50;99.90;;;;;;4989970;28;20047;-77
2022/12/24 00:57:31;;;;;;;30.00;15.55;;;6.50;99.90;;;;;;4989392;28;20046;-76
2022/12/24 00:59:56;;;;;;;31.35;15.90;;;6.50;99.90;;;;;;4989324;28;20386;-78
2022/12/24 01:02:22;;;;;;;33.03;15.43;;;6.90;99.90;;;;;;4988927;28;20481;-76
2022/12/24 01:07:32;;;;;;;36.33;17.35;;;6.50;99.90;;;;;;4989033;28;20106;-79
2022/12/24 01:09:58;;;;;;;27.92;14.90;;;6.50;99.90;;;;;;4988926;28;20050;-81
2022/12/24 01:12:24;;;;;;;30.60;16.15;;;6.50;99.90;;;;;;4988535;28;20070;-82
2022/12/24 01:14:50;;;;;;;27.98;15.07;;;6.50;99.90;;;;;;5086913;28;20046;-77
2022/12/24 01:17:16;;;;;;;31.48;16.30;;;6.50;99.90;;;;;;4986884;28;20489;-76
2022/12/24 01:19:41;;;;;;;31.63;16.98;;;6.50;99.90;;;;;;4988386;28;20058;-82
2022/12/24 01:22:07;;;;;;;32.15;16.40;;;6.50;99.90;;;;;;4988640;28;20109;-82
2022/12/24 01:24:32;;;;;;;36.20;16.40;;;6.50;99.90;;;;;;4989394;28;20055;-85
2022/12/24 01:26:58;;;;;;;32.90;16.17;;;6.50;99.90;;;;;;4988277;28;20039;-82
2022/12/24 01:29:24;;;;;;;29.42;15.48;;;6.50;99.90;;;;;;4988189;28;20096;-76
2022/12/24 01:31:49;;;;;;;34.03;16.30;;;6.50;99.90;;;;;;4988128;28;20042;-81
2022/12/24 01:34:15;;;;;;;31.48;16.45;;;6.50;99.90;;;;;;4988224;28;20058;-77
2022/12/24 01:36:41;;;;;;;33.30;17.65;;;6.50;99.90;;;;;;4989369;28;20038;-76
2022/12/24 01:39:07;;;;;;;34.47;16.77;;;6.50;99.90;;;;;;5019582;28;20118;-76
2022/12/24 01:44:21;;;;;;;31.50;17.65;;;6.50;99.90;;;;;;4988083;28;20050;-76
2022/12/24 01:46:50;;;;;;;33.28;16.58;;;6.50;99.90;;;;;;4989266;28;20038;-77
2022/12/24 01:49:17;;;;;;;32.78;18.02;;;6.50;99.90;;;;;;4988075;28;20498;-76
2022/12/24 01:51:47;;;;;;;34.45;17.25;;;6.50;99.90;;;;;;4988236;28;20149;-76
2022/12/24 01:54:37;;;;;;;37.17;18.50;;;6.50;99.90;;;;;;4989315;28;20035;-76
2022/12/24 01:57:21;;;;;;;31.02;16.50;;;6.50;99.90;;;;;;4987970;28;20804;-85
2022/12/24 01:59:54;;;;;;;31.67;16.90;;;6.50;99.90;;;;;;4987759;28;20114;-76
2022/12/24 02:02:21;;;;;;;35.45;16.85;;;6.50;99.90;;;;;;4986383;28;20087;-77
2022/12/24 02:05:14;;;;;;;33.95;16.67;;;6.50;99.90;;;;;;4987719;28;20051;-76
2022/12/24 02:07:40;;;;;;;30.35;16.02;;;6.50;99.90;;;;;;5024262;28;20056;-76
2022/12/24 02:10:08;;;;;;;32.63;16.40;;;6.50;99.90;;;;;;4987849;28;20054;-78
2022/12/24 02:12:36;;;;;;;32.67;17.13;;;6.50;99.90;;;;;;4987912;28;20469;-81
2022/12/24 02:15:04;;;;;;;30.77;15.85;;;6.50;99.90;;;;;;4988753;28;20099;-76
2022/12/24 02:17:33;;;;;;;35.58;16.30;;;6.50;99.90;;;;;;4986766;28;20058;-77
2022/12/24 02:20:16;;;;;;;33.67;16.40;;;6.50;99.90;;;;;;4987837;28;20050;-78
2022/12/24 02:23:06;;;;;;;29.88;15.63;;;6.50;99.90;;;;;;4987722;28;20078;-76
2022/12/24 02:26:03;;;;;;;32.22;16.92;;;6.50;99.90;;;;;;5024824;28;20485;-76
2022/12/24 02:28:41;;;;;;;33.65;16.40;;;6.60;99.90;;;;;;4987343;28;20050;-78
2022/12/24 02:31:26;;;;;;;33.97;16.48;;;6.50;99.90;;;;;;5021287;28;20139;-78
2022/12/24 02:34:09;;;;;;;33.97;17.48;;;6.60;99.90;;;;;;4991169;28;20049;-80
2022/12/24 02:37:02;;;;;;;31.73;17.27;;;6.60;99.90;;;;;;4990605;28;20066;-75
2022/12/24 02:39:46;;;;;;;30.58;16.70;;;6.60;99.90;;;;;;4990857;28;20050;-75
2022/12/24 02:42:16;;;;;;;30.83;16.60;;;6.60;99.90;;;;;;4990711;28;20057;-79
2022/12/24 02:44:48;;;;;;;35.05;16.75;;;6.70;99.90;;;;;;4990518;28;20088;-74
2022/12/24 02:47:15;;;;;;;29.63;16.33;;;6.70;99.90;;;;;;5091786;28;20086;-79
2022/12/24 02:49:44;;;;;;;34.67;16.83;;;6.80;99.90;;;;;;4992133;28;20049;-83
2022/12/24 02:52:26;;;;;;;29.65;15.75;;;7.60;99.90;;;;;;4991499;28;20085;-75
2022/12/24 02:54:52;;;;;;;29.67;14.93;;;6.80;99.90;;;;;;4991136;28;20141;-79
2022/12/24 02:57:33;;;;;;;27.27;15.98;;;6.90;99.90;;;;;;4996499;28;20124;-78
2022/12/24 03:00:07;;;;;;;31.58;16.13;;;7.10;99.90;;;;;;5010792;28;20095;-75
2022/12/24 03:03:11;;;;;;;28.88;16.10;;;7.10;99.90;;;;;;4991002;28;20054;-73
2022/12/24 03:05:47;;;;;;;31.30;16.40;;;7.20;99.90;;;;;;4994761;28;20472;-85
2022/12/24 03:08:22;;;;;;;32.08;13.45;;;7.30;99.90;;;;;;5011323;28;20046;-80
2022/12/24 03:10:48;;;;;;;24.45;13.07;;;7.40;99.90;;;;;;5011588;28;20527;-84
2022/12/24 03:13:16;;;;;;;28.80;13.93;;;7.80;99.90;;;;;;5011201;28;20077;-90
2022/12/24 03:15:44;;;;;;;30.02;12.88;;;7.50;99.90;;;;;;5006832;28;20129;-75
2022/12/24 03:18:12;;;;;;;26.23;13.40;;;7.70;99.90;;;;;;5010897;28;20061;-76
2022/12/24 03:20:40;;;;;;;27.55;12.60;;;7.60;99.90;;;;;;5011626;28;20046;-86
2022/12/24 03:23:07;;;;;;;26.95;13.65;;;7.60;99.90;;;;;;5010609;28;20068;-74
2022/12/24 03:25:37;;;;;;;23.52;12.00;;;7.60;99.90;;;;;;5011731;28;20592;-79
2022/12/24 03:28:05;;;;;;;27.10;12.18;;;7.60;99.90;;;;;;5011512;28;20100;-74
2022/12/24 03:30:31;;;;;;;18.08;10.32;;;7.60;99.90;;;;;;5010028;28;20452;-77
2022/12/24 03:32:57;;;;;;;27.15;11.02;;;8.10;99.90;;;;;;5011459;28;20049;-74
2022/12/24 03:35:22;;;;;;;29.13;11.48;;;7.70;99.90;;;;;;5011250;28;20425;-84
2022/12/24 03:37:48;;;;;;;29.80;10.32;;;7.70;99.90;;;;;;5010682;28;20916;-83
2022/12/24 03:40:14;;;;;;;24.77;10.43;;;7.80;99.90;;;;;;4994765;28;20084;-78
2022/12/24 03:42:39;;;;;;;29.15;10.80;;;7.80;99.90;;;;;;4998063;28;20082;-78
2022/12/24 03:45:05;;;;;;;29.95;8.82;;;7.80;99.90;;;;;;4990721;28;20077;-76
2022/12/24 03:47:31;;;;;;;32.25;8.02;;;7.80;99.90;;;;;;4990482;28;20422;-75
2022/12/24 03:49:57;;;;;;;27.88;7.32;;;7.90;99.90;;;;;;4988866;28;20043;-74
2022/12/24 03:52:23;;;;;;;40.42;7.30;;;8.00;99.90;;;;;;4990470;28;20463;-76
2022/12/24 03:54:49;;;;;;;26.88;6.50;;;8.00;99.90;;;;;;4989394;28;20093;-83
2022/12/24 03:57:14;;;;;;;40.63;7.70;;;8.60;99.90;;;;;;4990417;28;20074;-79
2022/12/24 03:59:40;;;;;;;41.17;7.13;;;8.60;99.90;;;;;;4988769;28;20485;-84
2022/12/24 04:02:05;;;;;;;43.92;5.60;;;8.00;99.90;;;;;;4990473;28;20121;-75
2022/12/24 04:04:32;;;;;;;37.38;5.85;;;8.00;99.90;;;;;;4989071;28;20046;-75
2022/12/24 04:06:58;;;;;;;52.10;7.28;;;8.50;99.90;;;;;;4990629;28;20046;-80
2022/12/24 04:09:24;;;;;;;36.00;5.72;;;8.10;99.90;;;;;;4989439;28;20053;-88
2022/12/24 04:11:50;;;;;;;50.60;6.00;;;8.20;99.90;;;;;;4990460;28;20161;-75
2022/12/24 04:14:15;;;;;;;37.88;5.05;;;8.00;99.90;;;;;;4990629;28;20413;-81
2022/12/24 04:16:41;;;;;;;37.65;5.65;;;8.20;99.90;;;;;;4990081;28;20038;-74
2022/12/24 04:19:07;;;;;;;28.63;4.68;;;8.00;99.90;;;;;;4988298;28;20038;-76
2022/12/24 04:21:32;;;;;;;36.60;5.45;;;8.00;99.90;;;;;;4989709;28;20125;-75
2022/12/24 04:23:58;;;;;;;40.95;5.15;;;8.00;99.90;;;;;;4989601;28;20050;-78
2022/12/24 04:26:24;;;;;;;36.65;4.97;;;8.00;99.90;;;;;;4988357;28;20047;-85
2022/12/24 04:28:50;;;;;;;37.92;5.50;;;8.00;99.90;;;;;;4989299;28;20069;-86
2022/12/24 04:31:16;;;;;;;40.55;5.80;;;7.90;99.90;;;;;;4989284;28;20050;-80
2022/12/24 04:33:42;;;;;;;41.53;5.80;;;7.90;99.90;;;;;;4988967;28;20482;-75
2022/12/24 04:36:11;;;;;;;48.58;5.32;;;7.90;99.90;;;;;;4989543;28;20050;-75
2022/12/24 04:38:37;;;;;;;32.55;5.32;;;7.80;99.90;;;;;;4989121;28;20046;-75
2022/12/24 04:41:10;;;;;;;37.78;4.72;;;8.20;99.90;;;;;;4988085;28;20705;-75
2022/12/24 04:43:36;;;;;;;44.28;5.55;;;7.80;99.90;;;;;;4989428;28;20054;-79
2022/12/24 04:46:17;;;;;;;43.97;5.18;;;7.80;99.90;;;;;;4989122;28;20046;-83
2022/12/24 04:48:44;;;;;;;39.40;5.38;;;7.80;99.90;;;;;;4988991;28;20043;-74
2022/12/24 04:51:10;;;;;;;56.95;6.00;;;7.70;99.90;;;;;;4988905;28;20042;-76
2022/12/24 04:53:37;;;;;;;45.45;5.13;;;7.70;99.90;;;;;;4987333;28;20086;-76
2022/12/24 04:56:06;;;;;;;39.50;5.78;;;7.80;99.90;;;;;;4987895;28;20077;-76
2022/12/24 04:58:32;;;;;;;39.22;4.38;;;7.80;99.90;;;;;;4989458;28;20146;-74
2022/12/24 05:01:03;;;;;;;41.70;5.70;;;7.80;99.90;;;;;;4988870;28;20046;-83
2022/12/24 05:03:29;;;;;;;47.40;5.45;;;7.80;99.90;;;;;;4987089;28;20054;-79
2022/12/24 05:06:01;;;;;;;46.85;5.28;;;8.00;99.90;;;;;;4989122;28;20396;-75
2022/12/24 05:08:26;;;;;;;34.70;5.18;;;8.10;99.90;;;;;;4988521;28;20050;-76
2022/12/24 05:10:56;;;;;;;49.40;6.22;;;7.90;99.90;;;;;;4988105;28;20043;-75
2022/12/24 05:13:22;;;;;;;45.53;5.32;;;7.80;99.90;;;;;;4988776;28;20042;-76
2022/12/24 05:15:48;;;;;;;47.65;5.68;;;7.90;99.90;;;;;;4989037;28;20104;-84
2022/12/24 05:18:13;;;;;;;42.03;5.35;;;7.90;99.90;;;;;;4987521;28;20048;-79
2022/12/24 05:20:40;;;;;;;42.90;6.07;;;7.90;99.90;;;;;;4989247;28;20038;-83
2022/12/24 05:28:34;;;;;;;49.47;5.75;;;8.60;99.90;;;;;;4969131;28;20635;-82
2022/12/24 05:31:00;;;;;;;41.50;6.03;;;7.90;99.90;;;;;;4969492;28;20047;-75
2022/12/24 05:33:26;;;;;;;51.30;6.68;;;7.90;99.90;;;;;;4968936;28;20457;-76
2022/12/24 05:35:51;;;;;;;36.55;5.28;;;7.90;99.90;;;;;;4985893;28;20456;-83
2022/12/24 05:38:17;;;;;;;49.95;5.75;;;7.90;99.90;;;;;;4986701;28;20082;-81
2022/12/24 05:40:43;;;;;;;48.22;6.90;;;8.00;99.90;;;;;;5033132;28;20041;-77
2022/12/24 05:43:08;;;;;;;49.45;6.43;;;7.90;99.90;;;;;;4987907;28;20054;-82
2022/12/24 05:45:34;;;;;;;62.53;6.40;;;7.90;99.90;;;;;;4988361;28;20089;-84
2022/12/24 05:48:00;;;;;;;48.78;7.07;;;7.90;99.90;;;;;;4987295;28;20453;-79
2022/12/24 05:50:25;;;;;;;43.08;6.25;;;8.10;99.90;;;;;;4987513;28;20107;-76
2022/12/24 05:52:51;;;;;;;56.40;6.10;;;8.00;99.90;;;;;;4988861;28;20354;-76
2022/12/24 05:55:16;;;;;;;48.47;6.50;;;8.00;99.90;;;;;;4988359;28;20034;-79
2022/12/24 05:57:42;;;;;;;53.53;6.50;;;8.00;99.90;;;;;;4988328;28;20050;-76
2022/12/24 06:00:08;;;;;;;57.88;7.03;;;8.00;99.90;;;;;;4987046;28;20038;-79
2022/12/24 06:02:34;;;;;;;50.92;6.38;;;8.00;99.90;;;;;;4988377;28;20046;-81
2022/12/24 06:04:59;;;;;;;53.13;6.32;;;8.00;99.90;;;;;;4987450;28;20504;-82
2022/12/24 06:07:25;;;;;;;60.38;7.18;;;8.10;99.90;;;;;;4987724;28;20038;-76
2022/12/24 06:09:51;;;;;;;50.38;6.68;;;8.00;99.90;;;;;;4986811;28;20056;-76
2022/12/24 06:12:16;;;;;;;50.03;6.53;;;8.40;99.90;;;;;;4987865;28;20042;-76
2022/12/24 06:14:42;;;;;;;47.40;6.53;;;8.50;99.90;;;;;;4986705;28;20046;-76
2022/12/24 06:17:07;;;;;;;40.25;5.65;;;8.00;99.90;;;;;;4987535;28;20379;-79
2022/12/24 06:19:33;;;;;;;58.53;6.45;;;8.00;99.90;;;;;;4987867;28;20039;-74
2022/12/24 06:21:59;;;;;;;50.90;7.47;;;8.10;99.90;;;;;;4986715;28;20065;-81
2022/12/24 06:24:24;;;;;;;55.33;6.18;;;8.00;99.90;;;;;;4986879;28;20133;-76
2022/12/24 06:26:50;;;;;;;50.30;6.88;;;8.00;99.90;;;;;;4987943;28;20046;-75
2022/12/24 06:29:15;;;;;;;63.63;5.53;;;8.00;99.90;;;;;;4986218;28;20061;-82
2022/12/24 06:31:41;;;;;;;42.75;5.78;;;8.00;99.90;;;;;;4987688;28;20402;-76
2022/12/24 06:34:06;;;;;;;51.60;5.70;;;8.00;99.90;;;;;;4987897;28;20397;-80
2022/12/24 06:36:32;;;;;;;48.20;5.65;;;8.00;99.90;;;;;;4987501;28;20053;-75
2022/12/24 06:38:58;;;;;;;37.92;5.55;;;7.90;99.90;;;;;;4987032;28;20439;-82
2022/12/24 06:41:23;;;;;;;43.90;5.47;;;7.90;99.90;;;;;;4987358;28;20046;-76
2022/12/24 06:43:51;;;;;;;39.65;6.68;;;8.00;99.90;;;;;;4985929;28;20046;-79
2022/12/24 06:46:17;;;;;;;41.88;5.82;;;7.90;99.90;;;;;;4987553;28;20055;-75
2022/12/24 06:48:44;;;;;;;50.92;5.90;;;7.80;99.90;;;;;;4987151;28;20549;-76
2022/12/24 06:51:10;;;;;;;50.58;6.70;;;7.80;99.90;;;;;;4985846;28;20133;-82
2022/12/24 06:53:36;;;;;;;43.03;6.25;;;7.80;99.90;;;;;;4987398;28;20058;-77
2022/12/24 06:56:03;;;;;;;48.97;6.13;;;7.80;99.90;;;;;;4987590;28;20047;-78
2022/12/24 06:58:29;;;;;;;36.72;5.63;;;7.80;99.90;;;;;;4985748;28;20096;-78
2022/12/24 07:00:55;;;;;;;48.28;6.55;;;7.80;99.90;;;;;;4987171;28;20054;-77
2022/12/24 07:03:20;;;;;;;43.42;5.63;;;7.80;99.90;;;;;;4987114;28;20060;-82
2022/12/24 07:05:46;;;;;;;43.67;5.82;;;7.80;99.90;;;;;;4985805;28;20054;-78
2022/12/24 07:08:11;;;;;;;51.30;6.40;;;7.90;99.90;;;;;;4986746;28;20045;-80
2022/12/24 07:10:37;;;;;;;46.22;6.18;;;7.80;99.90;;;;;;4986863;28;20038;-87
2022/12/24 07:13:03;;;;;;;42.20;6.03;;;7.80;99.90;;;;;;4987210;28;20042;-80
2022/12/24 07:15:28;;;;;;;42.13;6.25;;;7.80;99.90;;;;;;4987397;28;20076;-77
2022/12/24 07:17:54;;;;;;;45.60;6.30;;;7.80;99.90;;;;;;4989266;28;20054;-84
2022/12/24 07:20:19;;;;;;;47.92;5.82;;;7.90;99.90;;;;;;4988786;28;20100;-76
2022/12/24 07:22:45;;;;;;;39.85;5.15;;;7.90;99.90;;;;;;4989797;28;20409;-75
2022/12/24 07:25:11;;;;;;;47.95;5.80;;;7.90;99.90;;;;;;4990859;28;20094;-85
2022/12/24 07:27:37;;;;;;;48.83;6.30;;;8.50;99.90;;;;;;4990425;28;20061;-80
2022/12/24 07:30:04;;;;;;;44.30;6.03;;;8.00;99.90;;;;;;4990118;28;20066;-86
2022/12/24 07:32:29;;;;;;;35.83;5.18;;;8.00;99.90;;;;;;4988741;28;20046;-76
2022/12/24 07:34:55;;;;;;;42.28;6.47;;;8.50;99.90;;;;;;4990268;28;20382;-76
2022/12/24 07:37:20;;;;;;;42.78;5.13;;;8.00;99.90;;;;;;4990213;28;20499;-75
2022/12/24 07:39:46;;;;;;;45.95;6.57;;;8.00;99.90;;;;;;4988544;28;20046;-74
2022/12/24 07:42:12;;;;;;;43.15;5.70;;;8.00;99.90;;;;;;4989845;28;20082;-75
2022/12/24 07:44:37;;;;;;;51.78;6.07;;;8.00;99.90;;;;;;4990294;28;20050;-75
2022/12/24 07:47:03;;;;;;;40.08;6.75;;;8.00;99.90;;;;;;4990093;28;20047;-82
2022/12/24 07:49:29;;;;;;;44.08;5.78;;;8.00;99.90;;;;;;4990063;28;20125;-79
2022/12/24 07:51:54;;;;;;;49.50;5.82;;;8.00;99.90;;;;;;4989490;28;20053;-82
2022/12/24 07:54:20;;;;;;;49.13;7.75;;;8.50;99.90;;;;;;4989993;28;20042;-76
2022/12/24 07:56:45;;;;;;;38.67;5.45;;;8.00;99.90;;;;;;4990540;28;20454;-75
2022/12/24 07:59:12;;;;;;;44.08;6.90;;;8.00;99.90;;;;;;4990297;28;20402;-75
2022/12/24 08:01:38;;;;;;;48.50;6.03;;;8.10;99.90;;;;;;4990041;28;20194;-84
2022/12/24 08:04:04;;;;;;;44.30;6.15;;;8.00;99.90;;;;;;4990060;28;20507;-78
2022/12/24 08:06:29;;;;;;;48.58;6.88;;;8.00;99.90;;;;;;4988371;28;20106;-76
2022/12/24 08:08:55;;;;;;;55.47;6.32;;;8.00;99.90;;;;;;4990108;28;20401;-75
2022/12/24 08:11:21;;;;;;;47.58;6.65;;;8.00;99.90;;;;;;4989807;28;20138;-82
2022/12/24 08:13:46;;;;;;;47.03;6.57;;;8.00;99.90;;;;;;4990199;28;20156;-75
2022/12/24 08:16:12;;;;;;;50.13;6.53;;;8.00;99.90;;;;;;4990357;28;20401;-75
2022/12/24 08:18:37;;;;;;;41.13;6.80;;;8.30;99.90;;;;;;4990102;28;20049;-74
2022/12/24 08:21:07;;;;;;;46.97;7.50;;;8.10;99.90;;;;;;4990386;28;20043;-76
2022/12/24 08:23:33;;;;;;;44.78;6.00;;;8.00;99.90;;;;;;4989450;28;20061;-74
2022/12/24 08:25:58;;;;;;;46.35;6.72;;;8.00;99.90;;;;;;4989660;28;20733;-74
2022/12/24 08:28:24;;;;;;;46.05;6.05;;;8.60;99.90;;;;;;4989783;28;20061;-81
2022/12/24 08:30:50;;;;;;;43.42;7.13;;;8.00;99.90;;;;;;4987684;28;20054;-75
2022/12/24 08:33:17;;;;;;;50.72;6.35;;;8.00;99.90;;;;;;4989643;28;20046;-75
2022/12/24 08:35:54;;;;;;;40.95;6.00;;;8.00;99.90;;;;;;4989588;28;20053;-75
2022/12/24 08:38:20;;;;;;;52.78;6.72;;;8.30;99.90;;;;;;4989190;28;20050;-88
2022/12/24 08:40:48;;;;;;;47.97;6.40;;;8.80;99.90;;;;;;4989862;28;20054;-75
2022/12/24 08:43:15;;;;;;;41.25;6.13;;;8.20;99.90;;;;;;4989689;28;20086;-82
2022/12/24 08:45:42;;;;;;;44.13;6.90;;;8.10;99.90;;;;;;4989695;28;20086;-76
2022/12/24 08:48:08;;;;;;;37.47;6.40;;;8.30;99.90;;;;;;4989656;28;20125;-74
2022/12/24 08:50:37;;;;;;;41.90;6.43;;;8.10;99.90;;;;;;4988362;28;20042;-76
2022/12/24 08:53:03;;;;;;;48.30;6.65;;;8.10;99.90;;;;;;4984675;28;20038;-75
2022/12/24 08:55:29;;;;;;;44.67;6.10;;;8.10;99.90;;;;;;4988891;28;20080;-79
2022/12/24 08:57:54;;;;;;;45.22;6.10;;;8.20;99.90;;;;;;4988442;28;20412;-78
2022/12/24 09:00:20;;;;;;;40.35;5.70;;;8.20;99.90;;;;;;4988783;28;20607;-76
2022/12/24 09:02:45;;;;;;;46.45;5.03;;;8.20;99.90;;;;;;4988821;28;20068;-82
2022/12/24 09:05:11;;;;;;;46.33;6.25;;;8.20;99.90;;;;;;4989161;28;20050;-88
2022/12/24 09:07:37;;;;;;;48.28;6.15;;;8.20;99.90;;;;;;4989104;28;20042;-85
2022/12/24 09:10:04;;;;;;;44.90;5.63;;;8.20;99.90;;;;;;4988831;28;20099;-89
2022/12/24 09:12:29;;;;;;;45.42;5.63;;;8.20;99.90;;;;;;4988651;28;20084;-77
2022/12/24 09:14:55;;;;;;;40.65;5.97;;;8.50;99.90;;;;;;4988927;28;20050;-75
2022/12/24 09:17:21;;;;;;;37.20;5.30;;;8.30;99.90;;;;;;4988948;28;20076;-76
2022/12/24 09:19:47;;;;;;;47.15;5.88;;;8.30;99.90;;;;;;4988916;28;20046;-83
2022/12/24 09:22:13;;;;;;;32.63;6.40;;;8.40;99.90;;;;;;4988939;28;20393;-77
2022/12/24 09:24:39;;;;;;;49.42;5.65;;;8.40;99.90;;;;;;4987840;28;20148;-77
2022/12/24 09:27:05;;;;;;;42.03;5.82;;;8.80;99.90;;;;;;4988823;28;20050;-76
2022/12/24 09:29:31;;;;;;;32.25;5.32;;;8.70;99.90;;;;;;4988696;28;20058;-82
2022/12/24 09:31:57;;;;;;;45.40;7.07;;;8.50;99.90;;;;;;4988808;28;20123;-74
2022/12/24 09:34:23;;;;;;;43.05;5.75;;;8.50;99.90;;;;;;4988342;28;20050;-74
2022/12/24 09:36:50;;;;;;;42.05;5.88;;;8.50;99.90;;;;;;4987403;28;20054;-79
2022/12/24 09:39:17;;;;;;;39.80;5.55;;;8.50;99.90;;;;;;4987662;28;20125;-76
2022/12/24 09:41:55;;;;;;;49.03;5.90;;;8.50;99.90;;;;;;4988276;28;20062;-75
2022/12/24 09:44:41;;;;;;;43.38;6.28;;;8.60;99.90;;;;;;4988442;28;20050;-76
2022/12/24 09:47:52;;;;;;;47.40;6.20;;;8.50;99.90;;;;;;4988606;28;20050;-74
2022/12/24 09:50:28;;;;;;;45.63;6.72;;;8.50;99.90;;;;;;5047888;28;20048;-74
2022/12/24 09:52:56;;;;;;;47.20;6.30;;;8.60;99.90;;;;;;5046118;28;20064;-76
2022/12/24 09:55:33;;;;;;;41.53;6.13;;;8.60;99.90;;;;;;5044927;28;20064;-75
2022/12/24 09:58:00;;;;;;;49.95;7.00;;;8.60;99.90;;;;;;5011567;28;20401;-75
2022/12/24 10:00:34;;;;;;;52.03;6.57;;;8.70;99.90;;;;;;5027872;28;20084;-75
2022/12/24 10:02:59;;;;;;;47.63;7.55;;;8.70;99.90;;;;;;5027803;28;20440;-87
2022/12/24 10:05:41;;;;;;;40.17;6.47;;;9.20;99.90;;;;;;5045417;28;20191;-77
2022/12/24 10:08:32;;;;;;;37.05;7.35;;;8.80;99.90;;;;;;5008412;28;20060;-76
2022/12/24 10:11:39;;;;;;;53.80;7.22;;;8.80;99.90;;;;;;5007612;28;20505;-81
2022/12/24 10:14:10;;;;;;;42.60;5.90;;;8.90;99.90;;;;;;4991781;28;20069;-77
2022/12/24 10:16:51;;;;;;;59.40;7.28;;;9.00;99.90;;;;;;5063558;28;20647;-76
2022/12/24 10:19:41;;;;;;;47.72;6.65;;;9.10;99.90;;;;;;5047578;28;20045;-78
2022/12/24 10:22:25;;;;;;;38.85;6.68;;;9.10;99.90;;;;;;5064314;28;20053;-82
2022/12/24 10:25:15;;;;;;;46.58;6.90;;;9.20;99.90;;;;;;5003530;28;20054;-79
2022/12/24 10:27:41;;;;;;;44.65;6.22;;;9.40;99.90;;;;;;4974763;28;20188;-74
2022/12/24 10:30:19;;;;;;;42.38;6.78;;;9.10;99.90;;;;;;4970289;28;20129;-75
2022/12/24 10:32:47;;;;;;;37.03;5.47;;;9.20;99.90;;;;;;4986386;28;20136;-87
2022/12/24 10:35:16;;;;;;;42.33;6.75;;;9.30;99.90;;;;;;4987239;28;20050;-88
2022/12/24 10:37:43;;;;;;;38.20;5.57;;;9.20;99.90;;;;;;4968675;28;20054;-80
2022/12/24 10:40:34;;;;;;;39.47;5.25;;;9.30;99.90;;;;;;4968371;28;20074;-76
2022/12/24 10:43:00;;;;;;;31.95;5.50;;;9.40;99.90;;;;;;4968744;28;20123;-82
2022/12/24 10:45:34;;;;;;;42.15;5.55;;;9.40;99.90;;;;;;4968352;28;20146;-74
2022/12/24 10:48:06;;;;;;;35.30;5.18;;;9.50;99.90;;;;;;4979663;28;20052;-75
2022/12/24 10:50:38;;;;;;;33.90;5.25;;;9.50;99.90;;;;;;4987650;28;20448;-76
2022/12/24 10:53:15;;;;;;;33.97;5.25;;;9.50;99.90;;;;;;4991198;28;20157;-75
2022/12/24 10:55:41;;;;;;;39.78;5.15;;;9.40;99.90;;;;;;4990806;28;20050;-74
2022/12/24 10:58:14;;;;;;;34.55;5.05;;;9.80;99.90;;;;;;4990928;28;20393;-74
2022/12/24 11:00:40;;;;;;;30.20;4.97;;;9.60;99.90;;;;;;4991142;28;20087;-74
2022/12/24 11:03:12;;;;;;;38.22;6.15;;;9.70;99.90;;;;;;4990877;28;20034;-74
2022/12/24 11:05:39;;;;;;;27.10;4.50;;;9.50;99.90;;;;;;4991004;28;20497;-75
2022/12/24 11:08:17;;;;;;;33.05;4.47;;;9.40;99.90;;;;;;4991108;28;20046;-78
2022/12/24 11:11:11;;;;;;;31.92;4.53;;;9.50;99.90;;;;;;4971344;28;20054;-76
2022/12/24 11:13:44;;;;;;;28.85;4.55;;;9.40;99.90;;;;;;4971629;28;20050;-76
2022/12/24 11:16:28;;;;;;;35.67;6.18;;;9.40;99.90;;;;;;4971832;28;20432;-80
2022/12/24 11:18:56;;;;;;;32.90;5.17;;;9.40;99.90;;;;;;4989062;28;20054;-74
2022/12/24 11:21:28;;;;;;;37.90;6.43;;;9.40;99.90;;;;;;4991011;28;20092;-88
2022/12/24 11:23:57;;;;;;;34.30;6.05;;;9.40;99.90;;;;;;4990686;28;20080;-74
2022/12/24 11:26:28;;;;;;;36.95;4.95;;;9.40;99.90;;;;;;4989199;28;20109;-79
2022/12/24 11:29:03;;;;;;;39.03;5.65;;;9.40;99.90;;;;;;4990147;28;20050;-76
2022/12/24 11:31:31;;;;;;;;;;;9.30;99.90;;;;;;4989858;28;20054;-77
2022/12/24 11:33:57;;;;;;;35.53;4.75;;;9.30;99.90;;;;;;4990445;28;19921;-76
2022/12/24 11:36:25;;;;;;;40.28;5.10;;;9.70;99.90;;;;;;4990492;28;20371;-76
2022/12/24 11:38:56;;;;;;;41.72;4.88;;;9.30;99.90;;;;;;4989973;28;20113;-80
2022/12/24 11:41:22;;;;;;;44.58;5.75;;;9.30;99.90;;;;;;4990422;28;20050;-81
2022/12/24 11:43:51;;;;;;;48.15;5.88;;;9.70;99.90;;;;;;4990067;28;20047;-74
2022/12/24 11:46:27;;;;;;;35.42;5.43;;;9.30;99.90;;;;;;4990035;28;20058;-74
2022/12/24 11:49:11;;;;;;;35.53;5.00;;;9.30;99.90;;;;;;4989743;28;20038;-82
2022/12/24 11:51:39;;;;;;;43.97;5.53;;;9.30;99.90;;;;;;4990191;28;20145;-76
2022/12/24 11:54:22;;;;;;;35.38;4.40;;;9.30;99.90;;;;;;4990458;28;20454;-80
2022/12/24 11:56:57;;;;;;;36.58;4.95;;;9.90;99.90;;;;;;4989751;28;20687;-91
2022/12/24 11:59:28;;;;;;;29.08;4.47;;;9.30;99.90;;;;;;4990104;28;20133;-75
2022/12/24 12:02:08;;;;;;;30.67;4.38;;;9.30;99.90;;;;;;4989352;28;20050;-75
2022/12/24 12:04:36;;;;;;;33.00;4.47;;;9.50;99.90;;;;;;4989974;28;20112;-81
2022/12/24 12:07:22;;;;;;;28.88;4.13;;;9.30;99.90;;;;;;4989868;28;20047;-74
2022/12/24 12:09:55;;;;;;;26.90;4.32;;;9.30;99.90;;;;;;4989920;28;20054;-82
2022/12/24 12:12:26;;;;;;;33.10;4.57;;;9.20;99.90;;;;;;4989643;28;20081;-76
2022/12/24 12:15:24;;;;;;;28.90;4.05;;;9.30;99.90;;;;;;4989590;28;20063;-75
2022/12/24 12:18:13;;;;;;;39.13;4.55;;;9.20;99.90;;;;;;5049442;28;20092;-86
2022/12/24 12:20:51;;;;;;;21.17;3.90;;;9.30;99.90;;;;;;5049351;28;20140;-82
2022/12/24 12:23:27;;;;;;;25.52;4.20;;;9.20;99.90;;;;;;5030762;28;20180;-76
2022/12/24 12:26:09;;;;;;;33.03;5.35;;;9.20;99.90;;;;;;5048940;28;20040;-82
2022/12/24 12:28:41;;;;;;;26.15;4.15;;;9.20;99.90;;;;;;5043137;28;20135;-76
2022/12/24 12:31:25;;;;;;;31.83;4.63;;;9.30;99.90;;;;;;5031989;28;20519;-82
2022/12/24 12:34:04;;;;;;;31.08;3.63;;;9.20;99.90;;;;;;5030327;28;20171;-76
2022/12/24 12:36:38;;;;;;;28.60;5.13;;;9.50;99.90;;;;;;5014005;28;20492;-87
2022/12/24 12:39:03;;;;;;;35.20;4.53;;;9.50;99.90;;;;;;5029407;28;20655;-77
2022/12/24 12:41:44;;;;;;;28.88;3.90;;;9.30;99.90;;;;;;5034951;28;20057;-82
2022/12/24 12:44:20;;;;;;;34.35;3.35;;;9.30;99.90;;;;;;5048928;28;20554;-75
2022/12/24 12:47:05;;;;;;;27.38;4.30;;;9.30;99.90;;;;;;5049111;28;20048;-79
2022/12/24 12:49:49;;;;;;;23.42;3.53;;;9.30;99.90;;;;;;5047667;28;20048;-75
2022/12/24 12:52:30;;;;;;;26.17;4.22;;;9.30;99.90;;;;;;5048535;28;20106;-87
2022/12/24 12:55:04;;;;;;;24.13;3.72;;;9.30;99.90;;;;;;4989671;28;20053;-76
2022/12/24 12:57:34;;;;;;;19.73;3.00;;;9.30;99.90;;;;;;4989430;28;20050;-75
2022/12/24 13:00:04;;;;;;;20.17;3.72;;;9.30;99.90;;;;;;4989140;28;20062;-78
2022/12/24 13:03:01;;;;;;;23.80;3.70;;;9.30;99.90;;;;;;4970244;28;20074;-83
2022/12/24 13:05:36;;;;;;;33.75;3.50;;;9.30;99.90;;;;;;4970126;28;20047;-84
2022/12/24 13:08:27;;;;;;;19.38;3.15;;;9.30;99.90;;;;;;4970118;28;20371;-75
2022/12/24 13:11:24;;;;;;;22.75;4.00;;;9.30;99.90;;;;;;4986993;28;20088;-78